Fremont, NC (27830)

8:16 PM EDT en Abril 26, 2015 (GMT -0400)
Pikeville | | Change Station
CLOSE
Current Station
Estación meteorológica personal
Location: Pikeville, NC
Altura: 157 ft
Estaciones meteorológicas cercanas

Alt 157 ft 35.50 °N, 77.99 °W | Updated 14 minutes ago

Nublado
Nublado
51.8 ° F
Sensación térmica 51.8 ° F
N
0.0
Viento Variable Viento desde NNO

Hoy
Alta -- | Baja -- ° F
--% Posibilidad de precipitaciones
Ayer
Alta -- | Baja -- ° F
Precip. -- pul
6:25 AM 7:53 PM
Cuarto creciente, 60% visible
Presión 29.74 pul
Visibilidad 10.0 Millas
Nubes Nubes dispersas 2600 ft
Muy nublado 12000 ft
Punto de rocío 50 ° F
Humedad 94%
Precipitaciones 0.02 pul
Espesor de la nieve No disponible.
UV 0 de una escala de 12
Polen 7.20 de una escala de 12
Calidad del aire No disponible.
Flu Activity Sporadic
METAR KGWW 262355Z AUTO 03003KT 10SM SCT026 BKN120 11/09 A2974 RMK AO2 T01060085 10120 20105

More Conditions Fewer Conditions

Presión 29.74 pul
Visibilidad 10.0 Millas
Nubes Nubes dispersas 2600 ft
Muy nublado 12000 ft
Punto de rocío 50 ° F
Humedad 94%
Precipitaciones 0.02 pul
Espesor de la nieve No disponible.
UV 0 de una escala de 12
Polen 7.20 de una escala de 12
Calidad del aire No disponible.
Flu Activity Sporadic
METAR KGWW 262355Z AUTO 03003KT 10SM SCT026 BKN120 11/09 A2974 RMK AO2 T01060085 10120 20105

More Conditions Fewer Conditions

The full scope of the disaster following a powerful 7.8-magnitude earthquake in Nepal may not come into view for days, but global charities are already sending emergency aid. Click to see how you can help.

10-Day Weather Forecast

Almanac

Astronomía

Apr. 26, 2015 Salida Puesta
Hora real
Crepúsculo civil
Crepúsculo náutico
Crepúsculo astronómico
Luna
Horas de luz
Horas de luz
Tomorrow will be .
, % of the Moon is Illuminated

Extremos de hoy

Máximos del estado Bajos del estado

Community

WunderPhotos

Upload Photos

1,817,171 ¡fotos cargadas!

WunderBlogs® & News

Nearby

Calidad del aire

  Calidad del aire Índice AQ Contaminante
Not available.

Grosos de nieve

Estación Profundido Altura

Actividad de terremotos

Ciudad Distance Mag. Tiempo y dato
Magnitud mínima muestra es 2,5.

Temperaturas de aguas costeras

Lugar Temperatura

Stations

Estaciones meteorológicas cercanas

Ubicación de la estación Temp. Vientos helados Punto de rocío Humedad Viento Precip. Alt Actualizado Tipo